Terminal Aerodrome Forecast
Issued by NWS Corpus Christi, TX

Home | Current Version | Previous Version | Text Only | Print | Product List | Glossary On
Versions: 1 2 3 4 5 6 7 8 9 10 11 12 13 14 15
277
FTUS44 KCRP 031128
TAFVCT
TAF
KVCT 031128Z 0312/0412 02010KT 6SM -SHRA BR OVC009
      TEMPO 0312/0316 3SM -TSRA BR SCT008CB OVC012
     FM031600 18013G17KT 6SM -SHRA BR BKN025 OVC100
      TEMPO 0318/0322 VRB15G25KT 3SM TSRA BR OVC015CB
     FM040100 02008KT 5SM -TSRA BR BKN008CB OVC015=

USA.gov is the U.S. government's official web portal to all federal, state and local government web resources and services.